^^
Station Historical Data
 
Daily Summary for October 19, 2018 Units:  Metric    English   Both
« Previous Day
Next Day »
Daily Weekly Monthly Yearly Custom
  Current: High: Low: Average:
Temperature: 3.0 °C 6.6 °C 2.8 °C 4.6 °C
Dew Point: 1.8 °C 5.6 °C 1.6 °C 3.5 °C
Humidity: 92% 93% 91% 92%
Wind Speed: 7.4km/h 11.1km/h 0.0km/h 6.9km/h
Wind Gust: 5.8km/h 8.7km/h - -
WindWSW - - WSW
Pressure: 1016.9 hPa 1016.9 hPa 1014.9 hPa -
Precipitation: 0.0 mm      
Historical Graphs
 
 
Tabular Data for October 19, 2018
Time Temperature Dew Point Pressure Wind Wind Speed Wind Gust Humidity Rainfall Rate (Hourly) solar Conditions
00:04 6.6 °C 5.6 °C 1014.9 hPa WSW 7.4 km/h 5.8 km/h 93% 0.0 mm WeatherDisplay:10.37 W/m2 CLR
00:09 6.5 °C 5.4 °C 1014.9 hPa West 3.9 km/h 3.5 km/h 93% 0.0 mm WeatherDisplay:10.37 W/m2 CLR
00:14 6.5 °C 5.4 °C 1014.9 hPa WNW 5.6 km/h 5.3 km/h 93% 0.0 mm WeatherDisplay:10.37 W/m2 CLR
00:19 6.5 °C 5.4 °C 1014.9 hPa WSW 5.6 km/h 4.2 km/h 93% 0.0 mm WeatherDisplay:10.37 W/m2 CLR
00:24 6.5 °C 5.4 °C 1014.9 hPa West 5.6 km/h 5.0 km/h 93% 0.0 mm WeatherDisplay:10.37 W/m2 CLR
00:29 6.4 °C 5.3 °C 1014.9 hPa WSW 7.4 km/h 4.7 km/h 93% 0.0 mm WeatherDisplay:10.37 W/m2 CLR
00:34 6.4 °C 5.3 °C 1014.9 hPa West 7.4 km/h 5.3 km/h 93% 0.0 mm WeatherDisplay:10.37 W/m2 CLR
00:39 6.3 °C 5.3 °C 1014.9 hPa WSW 5.6 km/h 5.3 km/h 93% 0.0 mm WeatherDisplay:10.37 W/m2 CLR
00:44 6.3 °C 5.3 °C 1014.9 hPa West 6.9 km/h 4.7 km/h 93% 0.0 mm WeatherDisplay:10.37 W/m2 CLR
00:49 6.2 °C 5.2 °C 1014.9 hPa WSW 7.4 km/h 5.3 km/h 93% 0.0 mm WeatherDisplay:10.37 W/m2 CLR
00:54 6.2 °C 5.2 °C 1015.9 hPa West 5.6 km/h 5.0 km/h 93% 0.0 mm WeatherDisplay:10.37 W/m2 CLR
00:59 6.2 °C 5.2 °C 1015.9 hPa SW 9.3 km/h 5.3 km/h 93% 0.0 mm WeatherDisplay:10.37 W/m2 CLR
01:04 6.1 °C 5.1 °C 1015.9 hPa WSW 7.4 km/h 5.3 km/h 93% 0.0 mm WeatherDisplay:10.37 W/m2 CLR
01:09 6.0 °C 4.9 °C 1015.9 hPa WSW 7.4 km/h 4.2 km/h 93% 0.0 mm WeatherDisplay:10.37 W/m2 CLR
01:14 6.0 °C 4.9 °C 1015.9 hPa WSW 9.0 km/h 6.4 km/h 93% 0.0 mm WeatherDisplay:10.37 W/m2 CLR
01:19 6.0 °C 4.9 °C 1015.9 hPa West 7.4 km/h 5.3 km/h 93% 0.0 mm WeatherDisplay:10.37 W/m2 CLR
01:24 5.9 °C 4.8 °C 1015.9 hPa WSW 11.1 km/h 8.7 km/h 93% 0.0 mm WeatherDisplay:10.37 W/m2 CLR
01:29 5.9 °C 4.8 °C 1015.9 hPa WSW 9.0 km/h 5.3 km/h 93% 0.0 mm WeatherDisplay:10.37 W/m2 CLR
01:34 5.8 °C 4.8 °C 1015.9 hPa WSW 9.3 km/h 6.1 km/h 93% 0.0 mm WeatherDisplay:10.37 W/m2 CLR
01:39 5.8 °C 4.8 °C 1015.9 hPa WSW 7.4 km/h 6.1 km/h 93% 0.0 mm WeatherDisplay:10.37 W/m2 CLR
01:44 5.8 °C 4.8 °C 1015.9 hPa WSW 5.6 km/h 5.3 km/h 93% 0.0 mm WeatherDisplay:10.37 W/m2 CLR
01:49 5.7 °C 4.5 °C 1015.9 hPa WSW 7.4 km/h 5.8 km/h 92% 0.0 mm WeatherDisplay:10.37 W/m2 CLR
01:54 5.7 °C 4.5 °C 1015.9 hPa WSW 11.1 km/h 7.6 km/h 92% 0.0 mm WeatherDisplay:10.37 W/m2 CLR
01:59 5.6 °C 4.4 °C 1015.9 hPa WSW 11.1 km/h 7.9 km/h 92% 0.0 mm WeatherDisplay:10.37 W/m2 CLR
02:04 5.6 °C 4.4 °C 1015.9 hPa WSW 9.3 km/h 7.6 km/h 92% 0.0 mm WeatherDisplay:10.37 W/m2 CLR
02:09 5.6 °C 4.4 °C 1015.9 hPa West 7.4 km/h 7.6 km/h 92% 0.0 mm WeatherDisplay:10.37 W/m2 CLR
02:14 5.5 °C 4.3 °C 1015.9 hPa WSW 9.3 km/h 7.6 km/h 92% 0.0 mm WeatherDisplay:10.37 W/m2 CLR
02:19 5.5 °C 4.3 °C 1015.9 hPa WSW 9.3 km/h 7.6 km/h 92% 0.0 mm WeatherDisplay:10.37 W/m2 CLR
02:24 5.5 °C 4.3 °C 1015.9 hPa WSW 7.6 km/h 6.9 km/h 92% 0.0 mm WeatherDisplay:10.37 W/m2 CLR
02:29 5.5 °C 4.3 °C 1015.9 hPa WSW 7.9 km/h 6.9 km/h 92% 0.0 mm WeatherDisplay:10.37 W/m2 CLR
02:34 5.5 °C 4.3 °C 1015.9 hPa WSW 7.4 km/h 7.2 km/h 92% 0.0 mm WeatherDisplay:10.37 W/m2 CLR
02:39 5.4 °C 4.2 °C 1015.9 hPa WSW 10.0 km/h 6.4 km/h 92% 0.0 mm WeatherDisplay:10.37 W/m2 CLR
02:44 5.4 °C 4.2 °C 1015.9 hPa WSW 7.9 km/h 6.1 km/h 92% 0.0 mm WeatherDisplay:10.37 W/m2 CLR
02:49 5.4 °C 4.2 °C 1015.9 hPa WSW 9.3 km/h 6.9 km/h 92% 0.0 mm WeatherDisplay:10.37 W/m2 CLR
02:54 5.3 °C 4.1 °C 1015.9 hPa WSW 9.3 km/h 7.6 km/h 92% 0.0 mm WeatherDisplay:10.37 W/m2 CLR
02:59 5.3 °C 4.1 °C 1015.9 hPa WSW 9.3 km/h 7.6 km/h 92% 0.0 mm WeatherDisplay:10.37 W/m2 CLR
03:04 5.3 °C 4.1 °C 1015.9 hPa WSW 9.3 km/h 7.6 km/h 92% 0.0 mm WeatherDisplay:10.37 W/m2 CLR
03:09 5.3 °C 4.1 °C 1015.9 hPa WSW 9.3 km/h 6.1 km/h 92% 0.0 mm WeatherDisplay:10.37 W/m2 CLR
03:14 5.3 °C 4.1 °C 1015.9 hPa West 7.4 km/h 6.9 km/h 92% 0.0 mm WeatherDisplay:10.37 W/m2 CLR
03:19 5.2 °C 4.0 °C 1015.9 hPa WSW 9.5 km/h 8.7 km/h 92% 0.0 mm WeatherDisplay:10.37 W/m2 CLR
03:24 5.2 °C 4.0 °C 1015.9 hPa West 11.1 km/h 7.2 km/h 92% 0.0 mm WeatherDisplay:10.37 W/m2 CLR
03:29 5.2 °C 4.0 °C 1015.9 hPa WSW 9.3 km/h 6.9 km/h 92% 0.0 mm WeatherDisplay:10.37 W/m2 CLR
03:34 5.1 °C 3.9 °C 1015.9 hPa WSW 7.4 km/h 5.8 km/h 92% 0.0 mm WeatherDisplay:10.37 W/m2 CLR
03:39 5.1 °C 3.9 °C 1015.9 hPa WSW 7.4 km/h 6.4 km/h 92% 0.0 mm WeatherDisplay:10.37 W/m2 CLR
03:44 5.1 °C 3.9 °C 1015.9 hPa WSW 10.3 km/h 6.9 km/h 92% 0.0 mm WeatherDisplay:10.37 W/m2 CLR
03:49 5.0 °C 3.8 °C 1015.9 hPa WSW 7.4 km/h 5.3 km/h 92% 0.0 mm WeatherDisplay:10.37 W/m2 CLR
03:54 5.0 °C 3.8 °C 1015.9 hPa WSW 5.6 km/h 4.2 km/h 92% 0.0 mm WeatherDisplay:10.37 W/m2 CLR
03:59 5.0 °C 3.8 °C 1015.9 hPa WSW 3.7 km/h 2.3 km/h 92% 0.0 mm WeatherDisplay:10.37 W/m2 CLR
04:04 4.9 °C 3.7 °C 1015.9 hPa WSW 5.8 km/h 3.5 km/h 92% 0.0 mm WeatherDisplay:10.37 W/m2 CLR
04:09 4.9 °C 3.7 °C 1015.9 hPa WSW 7.4 km/h 5.0 km/h 92% 0.0 mm WeatherDisplay:10.37 W/m2 CLR
04:14 4.8 °C 3.6 °C 1015.9 hPa WSW 7.4 km/h 6.9 km/h 92% 0.0 mm WeatherDisplay:10.37 W/m2 CLR
04:19 4.7 °C 3.5 °C 1015.9 hPa WSW 9.5 km/h 7.6 km/h 92% 0.0 mm WeatherDisplay:10.37 W/m2 CLR
04:24 4.7 °C 3.5 °C 1015.9 hPa WSW 9.3 km/h 6.9 km/h 92% 0.0 mm WeatherDisplay:10.37 W/m2 CLR
04:29 4.6 °C 3.4 °C 1015.9 hPa WSW 8.7 km/h 6.9 km/h 92% 0.0 mm WeatherDisplay:10.37 W/m2 CLR
04:34 4.6 °C 3.4 °C 1015.9 hPa WSW 9.3 km/h 6.9 km/h 92% 0.0 mm WeatherDisplay:10.37 W/m2 CLR
04:39 4.6 °C 3.4 °C 1015.9 hPa WSW 7.4 km/h 7.2 km/h 92% 0.0 mm WeatherDisplay:10.37 W/m2 CLR
04:44 4.5 °C 3.3 °C 1015.9 hPa WSW 7.4 km/h 5.0 km/h 92% 0.0 mm WeatherDisplay:10.37 W/m2 CLR
04:49 4.5 °C 3.3 °C 1015.9 hPa WSW 6.9 km/h 4.7 km/h 92% 0.0 mm WeatherDisplay:10.37 W/m2 CLR
04:54 4.4 °C 3.2 °C 1015.9 hPa WSW 7.4 km/h 5.3 km/h 92% 0.0 mm WeatherDisplay:10.37 W/m2 CLR
04:59 4.3 °C 3.1 °C 1015.9 hPa WSW 6.9 km/h 5.0 km/h 92% 0.0 mm WeatherDisplay:10.37 W/m2 CLR
05:04 4.2 °C 3.0 °C 1015.9 hPa WSW 9.3 km/h 7.6 km/h 92% 0.0 mm WeatherDisplay:10.37 W/m2 CLR
05:09 4.2 °C 3.0 °C 1015.9 hPa WSW 9.3 km/h 6.1 km/h 92% 0.0 mm WeatherDisplay:10.37 W/m2 CLR
05:14 4.1 °C 2.9 °C 1015.9 hPa WSW 9.3 km/h 7.9 km/h 92% 0.0 mm WeatherDisplay:10.37 W/m2 CLR
05:19 4.1 °C 2.9 °C 1015.9 hPa West 7.4 km/h 6.1 km/h 92% 0.0 mm WeatherDisplay:10.37 W/m2 CLR
05:24 4.1 °C 2.9 °C 1015.9 hPa WSW 9.3 km/h 6.4 km/h 92% 0.0 mm WeatherDisplay:10.37 W/m2 CLR
05:29 4.0 °C 2.8 °C 1015.9 hPa WSW 9.5 km/h 8.7 km/h 92% 0.0 mm WeatherDisplay:10.37 W/m2 CLR
05:34 4.0 °C 2.8 °C 1015.9 hPa WSW 9.7 km/h 7.9 km/h 92% 0.0 mm WeatherDisplay:10.37 W/m2 CLR
05:39 4.0 °C 2.8 °C 1015.9 hPa WSW 8.7 km/h 6.9 km/h 92% 0.0 mm WeatherDisplay:10.37 W/m2 CLR
05:44 4.0 °C 2.8 °C 1015.9 hPa WSW 7.4 km/h 6.4 km/h 92% 0.0 mm WeatherDisplay:10.37 W/m2 CLR
05:49 3.9 °C 2.7 °C 1015.9 hPa WSW 7.4 km/h 6.1 km/h 92% 0.0 mm WeatherDisplay:10.37 W/m2 CLR
05:54 3.8 °C 2.6 °C 1015.9 hPa WSW 7.4 km/h 6.1 km/h 92% 0.0 mm WeatherDisplay:10.37 W/m2 CLR
05:59 3.8 °C 2.6 °C 1015.9 hPa WSW 5.6 km/h 5.0 km/h 92% 0.0 mm WeatherDisplay:10.37 W/m2 CLR
06:04 3.7 °C 2.5 °C 1015.9 hPa WSW 7.4 km/h 5.3 km/h 92% 0.0 mm WeatherDisplay:10.37 W/m2 CLR
06:09 3.7 °C 2.5 °C 1016.9 hPa WSW 7.9 km/h 5.0 km/h 92% 0.0 mm WeatherDisplay:10.37 W/m2 CLR
06:14 3.7 °C 2.5 °C 1016.9 hPa WSW 5.6 km/h 3.9 km/h 92% 0.0 mm WeatherDisplay:10.37 W/m2 CLR
06:19 3.6 °C 2.4 °C 1016.9 hPa WSW 3.9 km/h 2.6 km/h 92% 0.0 mm WeatherDisplay:10.37 W/m2 CLR
06:24 3.6 °C 2.4 °C 1016.9 hPa WSW 5.6 km/h 4.7 km/h 92% 0.0 mm WeatherDisplay:10.37 W/m2 CLR
06:29 3.6 °C 2.4 °C 1016.9 hPa SW 3.7 km/h 1.4 km/h 92% 0.0 mm WeatherDisplay:10.37 W/m2 CLR
06:34 3.5 °C 2.3 °C 1016.9 hPa SSW 1.9 km/h 1.4 km/h 92% 0.0 mm WeatherDisplay:10.37 W/m2 CLR
06:39 3.5 °C 2.3 °C 1016.9 hPa SSW 2.6 km/h 1.9 km/h 92% 0.0 mm WeatherDisplay:10.37 W/m2 CLR
06:44 3.5 °C 2.3 °C 1016.9 hPa WSW 1.9 km/h 1.4 km/h 92% 0.0 mm WeatherDisplay:10.37 W/m2 CLR
06:49 3.4 °C 2.2 °C 1016.9 hPa Calm     92% 0.0 mm WeatherDisplay:10.37 W/m2 CLR
06:54 3.1 °C 1.9 °C 1016.9 hPa Calm     92% 0.0 mm WeatherDisplay:10.37 W/m2 CLR
06:59 3.1 °C 1.8 °C 1016.9 hPa Calm     91% 0.0 mm WeatherDisplay:10.37 W/m2 CLR
07:04 2.9 °C 1.7 °C 1016.9 hPa Calm     92% 0.0 mm WeatherDisplay:10.37 W/m2 CLR
07:09 2.9 °C 1.7 °C 1016.9 hPa Calm     92% 0.0 mm WeatherDisplay:10.37 W/m2 CLR
07:14 2.8 °C 1.6 °C 1016.9 hPa Calm     92% 0.0 mm WeatherDisplay:10.37 W/m2 CLR
07:19 2.8 °C 1.6 °C 1016.9 hPa SW 3.7 km/h 2.3 km/h 92% 0.0 mm WeatherDisplay:10.37 W/m2 CLR
07:24 2.9 °C 1.9 °C 1016.9 hPa WSW 5.6 km/h 3.9 km/h 93% 0.0 mm WeatherDisplay:10.37 W/m2 CLR
07:29 2.9 °C 1.9 °C 1016.9 hPa WSW 5.6 km/h 4.7 km/h 93% 0.0 mm WeatherDisplay:10.37 W/m2 CLR
07:34 3.0 °C 1.8 °C 1016.9 hPa WSW 5.6 km/h 5.0 km/h 92% 0.0 mm WeatherDisplay:10.37 W/m2 CLR
07:39 3.0 °C 1.8 °C 1016.9 hPa WSW 9.3 km/h 5.3 km/h 92% 0.0 mm WeatherDisplay:10.37 W/m2 CLR
07:44 3.0 °C 1.8 °C 1016.9 hPa WSW 5.8 km/h 3.9 km/h 92% 0.0 mm WeatherDisplay:10.37 W/m2 CLR
07:49 3.0 °C 1.8 °C 1016.9 hPa WSW 6.1 km/h 4.7 km/h 92% 0.0 mm WeatherDisplay:10.37 W/m2 CLR
07:54 3.0 °C 1.8 °C 1016.9 hPa WSW 5.6 km/h 4.2 km/h 92% 0.0 mm WeatherDisplay:10.37 W/m2 CLR
07:59 3.0 °C 1.8 °C 1016.9 hPa WSW 5.6 km/h 3.2 km/h 92% 0.0 mm WeatherDisplay:10.37 W/m2 CLR
08:04 3.0 °C 1.8 °C 1016.9 hPa WSW 5.6 km/h 4.2 km/h 92% 0.0 mm WeatherDisplay:10.37 W/m2 CLR
08:09 3.0 °C 1.8 °C 1016.9 hPa West 5.8 km/h 4.7 km/h 92% 0.0 mm WeatherDisplay:10.37 W/m2 CLR
08:14 3.0 °C 1.8 °C 1016.9 hPa WSW 7.4 km/h 5.3 km/h 92% 0.0 mm WeatherDisplay:10.37 W/m2 CLR
08:19 3.0 °C 1.8 °C 1016.9 hPa WSW 5.6 km/h 5.3 km/h 92% 0.0 mm WeatherDisplay:10.37 W/m2 CLR
08:24 3.0 °C 1.8 °C 1016.9 hPa WSW 5.6 km/h 5.0 km/h 92% 0.0 mm WeatherDisplay:10.37 W/m2 CLR
08:29 3.0 °C 1.8 °C 1016.9 hPa WSW 7.4 km/h 5.8 km/h 92% 0.0 mm WeatherDisplay:10.37 W/m2 CLR
Sääasema nurmiin, Utti
Page generated in 0.44 seconds.